Terminal Aerodrome Forecast
Issued by NWS

Home | Current Version | Previous Version | Text Only | Print | Product List | Glossary On
Versions: 1 2 3 4 5 6 7 8 9 10 11 12 13 14 15 16
000
FTUS45 KCYS 311120
TAFAIA
TAF
KAIA 311120Z 3112/0112 31005KT P6SM BKN100
     FM311700 28012KT P6SM SCT090
     FM312200 31013G23KT P6SM SCT200
     FM010100 34012KT P6SM FEW250
     FM010600 32006KT P6SM SKC=

USA.gov is the U.S. government's official web portal to all federal, state and local government web resources and services.